createdAt,value
2022-08-01T00:02:19.653Z,19.10
2022-08-01T00:08:13.048Z,19.00
2022-08-01T00:14:06.576Z,19.00
2022-08-01T00:20:01.497Z,19.20
2022-08-01T00:25:55.744Z,19.10
2022-08-01T00:31:51.545Z,19.20
2022-08-01T00:37:46.461Z,19.20
2022-08-01T00:43:43.012Z,19.30
2022-08-01T00:49:36.581Z,19.30
2022-08-01T00:55:34.580Z,19.30
2022-08-01T01:01:29.802Z,19.30
2022-08-01T01:07:49.928Z,19.30
2022-08-01T01:13:54.921Z,19.10
2022-08-01T01:19:53.384Z,19.10
2022-08-01T01:26:03.315Z,19.20
2022-08-01T01:32:04.346Z,19.10
2022-08-01T01:38:06.073Z,19.00
2022-08-01T01:44:00.394Z,19.00
2022-08-01T01:50:00.036Z,19.00
2022-08-01T01:55:58.335Z,19.20
2022-08-01T02:01:58.547Z,19.20
2022-08-01T02:08:01.509Z,19.10
2022-08-01T02:14:00.331Z,18.80
2022-08-01T02:19:54.873Z,19.00
2022-08-01T02:26:09.999Z,19.00
2022-08-01T02:32:09.053Z,19.00
2022-08-01T02:38:13.377Z,19.00
2022-08-01T02:44:13.154Z,19.00
2022-08-01T02:50:10.213Z,19.10
2022-08-01T02:56:07.834Z,19.10
2022-08-01T03:02:13.633Z,19.20
2022-08-01T03:08:11.970Z,19.20
2022-08-01T03:14:14.064Z,19.20
2022-08-01T03:20:11.780Z,19.20
2022-08-01T03:26:06.440Z,19.20
2022-08-01T03:32:01.349Z,19.20
2022-08-01T03:38:15.767Z,19.30
2022-08-01T03:44:16.593Z,19.20
2022-08-01T03:50:12.681Z,19.20
2022-08-01T03:56:10.597Z,19.20
2022-08-01T04:02:06.253Z,19.10
2022-08-01T04:08:03.313Z,19.10
2022-08-01T04:14:00.335Z,19.20
2022-08-01T04:19:55.472Z,19.10
2022-08-01T04:25:50.131Z,19.20
2022-08-01T04:31:46.785Z,19.20
2022-08-01T04:37:42.252Z,19.20
2022-08-01T04:43:35.684Z,19.10
2022-08-01T04:49:31.446Z,19.10
2022-08-01T04:55:43.415Z,19.10
2022-08-01T05:01:37.086Z,19.30
2022-08-01T05:07:31.846Z,19.20
2022-08-01T05:13:39.149Z,19.30
2022-08-01T05:19:33.204Z,19.30
2022-08-01T05:25:56.657Z,19.30
2022-08-01T05:31:49.926Z,19.30
2022-08-01T05:37:43.470Z,19.30
2022-08-01T05:43:43.718Z,19.20
2022-08-01T05:49:39.437Z,19.20
2022-08-01T05:55:38.168Z,19.10
2022-08-01T06:01:36.022Z,19.10
2022-08-01T06:07:29.457Z,19.10
2022-08-01T06:13:25.474Z,19.10
2022-08-01T06:19:20.430Z,19.10
2022-08-01T06:25:27.864Z,19.10
2022-08-01T06:31:21.235Z,19.10
2022-08-01T06:37:17.232Z,19.20
2022-08-01T06:43:20.398Z,19.20
2022-08-01T06:49:13.572Z,19.20
2022-08-01T06:55:09.849Z,19.20
2022-08-01T07:01:03.750Z,19.20
2022-08-01T07:06:58.655Z,19.20
2022-08-01T07:12:53.910Z,19.20
2022-08-01T07:18:50.519Z,19.20
2022-08-01T07:24:45.872Z,19.30
2022-08-01T07:30:43.438Z,19.20
2022-08-01T07:36:37.199Z,19.30
2022-08-01T07:42:30.658Z,19.30
2022-08-01T07:48:26.222Z,19.20
2022-08-01T07:54:19.643Z,19.20
2022-08-01T08:00:16.309Z,19.10
2022-08-01T08:06:14.011Z,19.10
2022-08-01T08:12:09.192Z,19.10
2022-08-01T08:18:05.179Z,19.20
2022-08-01T08:24:17.827Z,19.20
2022-08-01T08:36:30.932Z,19.30
2022-08-01T08:42:29.478Z,19.30
2022-08-01T08:48:27.620Z,19.40
2022-08-01T08:54:31.015Z,19.50
2022-08-01T09:00:26.654Z,19.50
2022-08-01T09:06:20.172Z,19.30
2022-08-01T09:12:32.557Z,19.40
2022-08-01T09:18:44.991Z,19.50
2022-08-01T09:24:39.182Z,19.50
2022-08-01T09:30:40.125Z,19.50
2022-08-01T09:36:56.098Z,19.30
2022-08-01T09:42:55.497Z,19.40
2022-08-01T09:48:59.954Z,19.70
2022-08-01T09:54:57.440Z,19.70
2022-08-01T10:01:08.800Z,19.90
2022-08-01T10:07:11.836Z,20.00
2022-08-01T10:13:09.970Z,20.20
2022-08-01T10:19:14.724Z,20.60
2022-08-01T10:25:09.811Z,20.90
2022-08-01T10:31:14.708Z,20.50
2022-08-01T10:37:11.699Z,20.90
2022-08-01T10:43:21.198Z,20.80
2022-08-01T10:49:20.065Z,20.80
2022-08-01T10:55:22.287Z,20.90
2022-08-01T11:01:32.344Z,21.10
2022-08-01T11:07:46.988Z,21.90
2022-08-01T11:14:10.792Z,21.60
2022-08-01T11:20:14.477Z,22.20
2022-08-01T11:26:17.627Z,22.40
2022-08-01T11:32:27.226Z,22.60
2022-08-01T11:38:28.076Z,22.80
2022-08-01T11:44:31.495Z,22.50
2022-08-01T11:50:40.587Z,23.40
2022-08-01T11:56:44.760Z,22.90
2022-08-01T12:02:54.167Z,23.50
2022-08-01T12:08:48.049Z,23.30
2022-08-01T12:14:44.067Z,23.30
2022-08-01T12:20:56.898Z,23.70
2022-08-01T12:26:52.935Z,24.30
2022-08-01T12:32:48.697Z,24.30
2022-08-01T12:38:43.584Z,23.80
2022-08-01T12:44:40.047Z,23.50
2022-08-01T12:50:34.400Z,23.10
2022-08-01T12:56:38.342Z,24.00
2022-08-01T13:02:34.927Z,23.90
2022-08-01T13:08:33.938Z,23.50
2022-08-01T13:14:36.411Z,24.60
2022-08-01T13:20:38.717Z,24.50
2022-08-01T13:26:43.178Z,23.80
2022-08-01T13:32:38.096Z,24.60
2022-08-01T13:38:49.091Z,24.90
2022-08-01T13:44:42.802Z,25.30
2022-08-01T13:50:41.355Z,24.30
2022-08-01T13:56:34.755Z,24.80
2022-08-01T14:02:28.547Z,25.00
2022-08-01T14:08:25.243Z,25.30
2022-08-01T14:14:20.950Z,26.20
2022-08-01T14:20:20.519Z,26.60
2022-08-01T14:26:15.374Z,24.00
2022-08-01T14:32:09.118Z,24.30
2022-08-01T14:38:03.034Z,24.20
2022-08-01T14:43:58.400Z,24.10
2022-08-01T14:49:52.300Z,23.30
2022-08-01T14:55:45.943Z,24.30
2022-08-01T15:01:40.687Z,24.40
2022-08-01T15:07:34.963Z,24.50
2022-08-01T15:13:30.455Z,24.40
2022-08-01T15:19:25.264Z,24.40
2022-08-01T15:25:18.880Z,23.60
2022-08-01T15:31:14.245Z,23.70
2022-08-01T15:37:10.376Z,23.30
2022-08-01T15:43:03.989Z,23.50
2022-08-01T15:48:57.791Z,23.20
2022-08-01T15:54:52.640Z,22.80
2022-08-01T16:00:46.018Z,22.70
2022-08-01T16:06:39.488Z,22.70
2022-08-01T16:12:34.929Z,22.50
2022-08-01T16:18:28.297Z,22.30
2022-08-01T16:24:21.681Z,22.10
2022-08-01T16:30:16.642Z,21.90
2022-08-01T16:36:16.764Z,21.70
2022-08-01T16:42:11.431Z,21.40
2022-08-01T16:48:07.069Z,21.40
2022-08-01T16:54:06.320Z,21.40
2022-08-01T17:00:22.714Z,21.20
2022-08-01T17:06:17.547Z,21.30
2022-08-01T17:12:12.196Z,21.50
2022-08-01T17:18:08.273Z,21.50
2022-08-01T17:24:03.055Z,21.00
2022-08-01T17:29:56.465Z,20.50
2022-08-01T17:35:49.966Z,20.70
2022-08-01T17:41:44.517Z,20.60
2022-08-01T17:47:50.468Z,20.40
2022-08-01T17:53:56.671Z,20.40
2022-08-01T17:59:53.155Z,20.30
2022-08-01T18:05:46.646Z,19.80
2022-08-01T18:11:46.659Z,19.80
2022-08-01T18:17:41.428Z,19.90
2022-08-01T18:23:35.353Z,19.80
2022-08-01T18:29:46.989Z,20.00
2022-08-01T18:35:52.228Z,20.00
2022-08-01T18:41:47.358Z,20.10
2022-08-01T18:47:40.798Z,19.70
2022-08-01T18:53:35.759Z,19.80
2022-08-01T18:59:29.306Z,19.70
2022-08-01T19:05:22.835Z,19.70
2022-08-01T19:11:17.658Z,19.70
2022-08-01T19:17:11.130Z,19.70
2022-08-01T19:23:24.537Z,19.60
2022-08-01T19:29:21.501Z,19.60
2022-08-01T19:35:17.467Z,19.50
2022-08-01T19:41:12.066Z,19.60
2022-08-01T19:47:07.766Z,19.50
2022-08-01T19:53:05.309Z,19.40
2022-08-01T19:59:00.056Z,19.30
2022-08-01T20:04:55.257Z,19.10
2022-08-01T20:10:49.413Z,19.00
2022-08-01T20:16:44.331Z,19.20
2022-08-01T20:22:41.472Z,19.10
2022-08-01T20:28:38.912Z,19.10
2022-08-01T20:34:37.516Z,18.80
2022-08-01T20:40:32.334Z,18.80
2022-08-01T20:46:26.729Z,18.60
2022-08-01T20:52:21.314Z,18.70
2022-08-01T20:58:23.583Z,18.30
2022-08-01T21:04:39.804Z,18.40
2022-08-01T21:10:37.785Z,18.20
2022-08-01T21:16:38.165Z,18.00
2022-08-01T21:22:37.387Z,18.10
2022-08-01T21:28:30.872Z,18.10
2022-08-01T21:34:26.453Z,17.90
2022-08-01T21:40:20.364Z,17.80
2022-08-01T21:46:14.162Z,17.90
2022-08-01T21:52:15.469Z,17.90
2022-08-01T21:58:24.303Z,17.70
2022-08-01T22:04:19.570Z,17.40
2022-08-01T22:10:17.473Z,17.20
2022-08-01T22:16:15.691Z,17.20
2022-08-01T22:22:50.342Z,17.20
2022-08-01T22:28:25.095Z,17.10
2022-08-01T22:34:20.155Z,17.10
2022-08-01T22:40:15.517Z,16.90
2022-08-01T22:46:25.212Z,16.90
2022-08-01T22:52:20.964Z,16.90
2022-08-01T22:58:16.742Z,16.70
2022-08-01T23:04:17.488Z,16.60
2022-08-01T23:10:12.597Z,16.50
2022-08-01T23:16:06.449Z,16.40
2022-08-01T23:22:02.523Z,16.20
2022-08-01T23:28:05.439Z,16.20
2022-08-01T23:34:00.017Z,16.00
2022-08-01T23:39:54.760Z,15.80
2022-08-01T23:46:02.901Z,15.80
2022-08-01T23:51:58.243Z,15.70
2022-08-01T23:57:53.123Z,15.70
